Time;durP1;ratioP1;P1;durP2;ratioP2;P2;SDS_P1;SDS_P2;PMS_P1;PMS_P2;Temp;Humidity;BMP_temperature;BMP_pressure;BME280_temperature;BME280_humidity;BME280_pressure;Samples;Min_cycle;Max_cycle;Signal;HPM_P1;HPM_P2
2022/09/04 00:00:02;;;;;;;9.90;4.15;;;;;;;;;;4754222;30;20039;-74
2022/09/04 00:02:34;;;;;;;10.30;3.40;;;;;;;;;;4754392;30;20413;-74
2022/09/04 00:05:05;;;;;;;7.70;3.92;;;;;;;;;;4753796;30;20048;-74
2022/09/04 00:07:41;;;;;;;10.77;4.20;;;;;;;;;;4754316;30;20028;-74
2022/09/04 00:10:30;;;;;;;10.73;3.88;;;;;;;;;;4754294;30;20028;-74
2022/09/04 00:13:17;;;;;;;10.38;4.28;;;;;;;;;;4754173;30;20031;-74
2022/09/04 00:15:49;;;;;;;8.98;4.13;;;;;;;;;;4754063;30;20505;-74
2022/09/04 00:18:24;;;;;;;11.95;4.45;;;;;;;;;;4754094;30;20047;-74
2022/09/04 00:20:53;;;;;;;7.80;3.83;;;;;;;;;;4754127;30;20044;-74
2022/09/04 00:23:27;;;;;;;6.35;3.88;;;;;;;;;;4753982;30;20039;-74
2022/09/04 00:26:07;;;;;;;8.65;4.05;;;;;;;;;;4767670;30;20085;-74
2022/09/04 00:28:37;;;;;;;10.48;3.70;;;;;;;;;;4753924;30;20024;-74
2022/09/04 00:31:12;;;;;;;11.38;4.00;;;;;;;;;;4753749;30;20036;-74
2022/09/04 00:34:00;;;;;;;8.45;3.92;;;;;;;;;;4767297;30;20032;-74
2022/09/04 00:36:27;;;;;;;13.60;4.10;;;;;;;;;;4753722;30;20384;-74
2022/09/04 00:39:00;;;;;;;10.10;3.83;;;;;;;;;;4753861;30;20093;-74
2022/09/04 00:41:41;;;;;;;9.02;4.05;;;;;;;;;;4764141;30;20095;-74
2022/09/04 00:44:16;;;;;;;8.15;4.03;;;;;;;;;;4736135;30;20039;-74
2022/09/04 00:46:50;;;;;;;10.10;3.90;;;;;;;;;;4735939;30;20028;-74
2022/09/04 00:49:20;;;;;;;8.60;4.20;;;;;;;;;;4735619;30;20024;-74
2022/09/04 00:52:04;;;;;;;8.27;3.72;;;;;;;;;;4735892;30;20051;-74
2022/09/04 00:54:40;;;;;;;7.55;3.70;;;;;;;;;;4743652;30;20028;-74
2022/09/04 00:57:15;;;;;;;12.90;3.80;;;;;;;;;;4753337;30;20020;-74
2022/09/04 00:59:56;;;;;;;5.78;3.75;;;;;;;;;;4753690;30;20047;-74
2022/09/04 01:02:36;;;;;;;8.15;4.03;;;;;;;;;;4753094;30;20032;-74
2022/09/04 01:05:05;;;;;;;11.27;4.55;;;;;;;;;;4753177;30;20503;-74
2022/09/04 01:07:52;;;;;;;13.30;4.53;;;;;;;;;;4753366;30;20040;-74
2022/09/04 01:10:47;;;;;;;11.57;4.38;;;;;;;;;;4751066;30;20519;-74
2022/09/04 01:13:48;;;;;;;8.52;4.10;;;;;;;;;;4743940;30;20055;-74
2022/09/04 01:16:25;;;;;;;9.73;4.22;;;;;;;;;;4716078;30;20071;-74
2022/09/04 01:18:57;;;;;;;7.75;4.13;;;;;;;;;;4715911;30;20052;-74
2022/09/04 01:21:29;;;;;;;10.52;4.38;;;;;;;;;;4716009;30;20531;-74
2022/09/04 01:24:07;;;;;;;9.60;4.20;;;;;;;;;;4715874;30;20045;-73
2022/09/04 01:26:52;;;;;;;6.35;4.15;;;;;;;;;;4716000;30;20071;-74
2022/09/04 01:29:18;;;;;;;8.82;3.95;;;;;;;;;;4716079;30;20047;-73
2022/09/04 01:31:55;;;;;;;12.50;4.90;;;;;;;;;;4715408;30;20041;-74
2022/09/04 01:34:39;;;;;;;15.18;4.38;;;;;;;;;;4715624;30;20427;-74
2022/09/04 01:37:35;;;;;;;14.20;4.50;;;;;;;;;;4715762;30;20041;-74
2022/09/04 01:40:19;;;;;;;13.60;4.47;;;;;;;;;;4708200;30;20053;-74
2022/09/04 01:43:19;;;;;;;9.95;4.68;;;;;;;;;;4730344;30;20031;-74
2022/09/04 01:46:05;;;;;;;8.82;4.40;;;;;;;;;;4726284;30;20055;-73
2022/09/04 01:48:31;;;;;;;12.43;4.35;;;;;;;;;;4749752;30;20434;-74
2022/09/04 01:51:01;;;;;;;11.10;4.22;;;;;;;;;;4766608;30;20055;-74
2022/09/04 01:53:30;;;;;;;9.32;4.47;;;;;;;;;;4769694;30;20551;-74
2022/09/04 01:56:12;;;;;;;7.45;4.30;;;;;;;;;;4752315;30;20044;-74
2022/09/04 01:58:38;;;;;;;12.23;5.00;;;;;;;;;;4752405;30;20448;-74
2022/09/04 02:01:04;;;;;;;8.75;4.38;;;;;;;;;;4751975;30;20039;-74
2022/09/04 02:03:40;;;;;;;9.55;4.53;;;;;;;;;;4765896;30;20042;-74
2022/09/04 02:06:09;;;;;;;11.10;4.75;;;;;;;;;;4752238;30;20046;-74
2022/09/04 02:08:35;;;;;;;9.63;4.75;;;;;;;;;;4752503;30;20032;-74
2022/09/04 02:11:12;;;;;;;7.78;4.22;;;;;;;;;;4752058;30;20040;-74
2022/09/04 02:13:42;;;;;;;8.30;4.30;;;;;;;;;;4752083;30;20082;-74
2022/09/04 02:16:27;;;;;;;10.35;4.70;;;;;;;;;;4765600;30;20028;-72
2022/09/04 02:19:03;;;;;;;10.35;4.00;;;;;;;;;;4752018;30;20507;-74
2022/09/04 02:21:30;;;;;;;15.10;4.38;;;;;;;;;;4751669;30;20048;-74
2022/09/04 02:23:56;;;;;;;12.35;4.22;;;;;;;;;;4752096;30;20084;-74
2022/09/04 02:26:33;;;;;;;10.57;4.45;;;;;;;;;;4751834;30;20571;-73
2022/09/04 02:29:22;;;;;;;11.57;4.53;;;;;;;;;;4751468;30;20114;-74
2022/09/04 02:32:01;;;;;;;9.88;4.07;;;;;;;;;;4749770;30;20514;-73
2022/09/04 02:34:37;;;;;;;11.80;4.95;;;;;;;;;;4749520;30;20056;-74
2022/09/04 02:37:09;;;;;;;9.95;4.30;;;;;;;;;;4749812;30;20059;-74
2022/09/04 02:39:55;;;;;;;12.85;5.13;;;;;;;;;;4749582;30;20033;-73
2022/09/04 02:42:38;;;;;;;11.95;4.68;;;;;;;;;;4749481;30;20041;-74
2022/09/04 02:45:12;;;;;;;10.82;4.40;;;;;;;;;;4749348;30;20044;-74
2022/09/04 02:47:48;;;;;;;11.90;5.18;;;;;;;;;;4749470;30;20032;-74
2022/09/04 02:50:37;;;;;;;11.35;4.43;;;;;;;;;;4749662;30;20426;-73
2022/09/04 02:53:03;;;;;;;9.98;4.80;;;;;;;;;;4749536;30;20042;-74
2022/09/04 02:55:33;;;;;;;9.02;4.43;;;;;;;;;;4749472;30;20036;-74
2022/09/04 02:58:18;;;;;;;14.90;4.60;;;;;;;;;;4749059;30;20044;-73
2022/09/04 03:01:03;;;;;;;9.82;4.57;;;;;;;;;;4749719;30;20032;-74
2022/09/04 03:03:34;;;;;;;8.57;4.78;;;;;;;;;;4749495;30;20036;-74
2022/09/04 03:06:00;;;;;;;10.00;5.00;;;;;;;;;;4749305;30;20464;-74
2022/09/04 03:08:32;;;;;;;9.27;5.25;;;;;;;;;;4750288;30;20046;-74
2022/09/04 03:11:05;;;;;;;13.45;5.25;;;;;;;;;;4751437;30;20036;-74
2022/09/04 03:13:37;;;;;;;12.90;4.75;;;;;;;;;;4751011;30;20036;-74
2022/09/04 03:16:09;;;;;;;10.35;5.18;;;;;;;;;;4751282;30;20044;-73
2022/09/04 03:18:35;;;;;;;7.13;5.00;;;;;;;;;;4751038;30;20066;-74
2022/09/04 03:21:20;;;;;;;7.72;4.28;;;;;;;;;;4751484;30;20047;-74
2022/09/04 03:24:00;;;;;;;12.95;4.95;;;;;;;;;;4751265;30;20491;-74
2022/09/04 03:26:29;;;;;;;9.38;4.95;;;;;;;;;;4751085;30;20044;-74
2022/09/04 03:28:55;;;;;;;9.20;4.82;;;;;;;;;;4751051;30;20028;-74
2022/09/04 03:31:33;;;;;;;9.07;4.97;;;;;;;;;;4751437;30;20046;-74
2022/09/04 03:34:12;;;;;;;9.85;5.00;;;;;;;;;;4753285;30;20471;-74
2022/09/04 03:36:42;;;;;;;10.27;4.90;;;;;;;;;;4754754;30;20036;-74
2022/09/04 03:39:11;;;;;;;13.18;5.10;;;;;;;;;;4754647;30;20028;-74
2022/09/04 03:41:44;;;;;;;8.85;4.85;;;;;;;;;;4764880;30;20047;-74
2022/09/04 03:44:33;;;;;;;9.27;5.22;;;;;;;;;;4737021;30;20127;-74
2022/09/04 03:47:11;;;;;;;7.70;4.95;;;;;;;;;;4752366;30;20064;-74
2022/09/04 03:49:50;;;;;;;11.13;5.00;;;;;;;;;;4752931;30;20043;-74
2022/09/04 03:52:35;;;;;;;9.75;4.80;;;;;;;;;;4752490;30;20040;-74
2022/09/04 03:55:14;;;;;;;10.82;4.53;;;;;;;;;;4752149;30;20483;-74
2022/09/04 03:57:41;;;;;;;9.68;4.75;;;;;;;;;;4752307;30;20040;-74
2022/09/04 04:00:10;;;;;;;13.15;4.82;;;;;;;;;;4752561;30;20040;-73
2022/09/04 04:02:45;;;;;;;8.77;4.78;;;;;;;;;;4752204;30;20041;-74
2022/09/04 04:05:19;;;;;;;10.70;5.10;;;;;;;;;;4752068;30;20056;-74
2022/09/04 04:07:51;;;;;;;11.93;4.63;;;;;;;;;;4752178;30;20047;-74
2022/09/04 04:10:18;;;;;;;8.57;4.72;;;;;;;;;;4752396;30;20047;-74
2022/09/04 04:12:51;;;;;;;8.27;4.97;;;;;;;;;;4751892;30;20032;-74
2022/09/04 04:15:29;;;;;;;7.47;4.63;;;;;;;;;;4752107;30;20368;-74
2022/09/04 04:17:56;;;;;;;9.13;4.63;;;;;;;;;;4751890;30;20528;-73
2022/09/04 04:20:40;;;;;;;19.80;5.28;;;;;;;;;;4752234;30;20046;-73
2022/09/04 04:23:29;;;;;;;9.77;5.53;;;;;;;;;;4752060;30;20044;-74
2022/09/04 04:25:59;;;;;;;8.05;5.10;;;;;;;;;;4753724;30;20187;-74
2022/09/04 04:28:34;;;;;;;9.27;4.83;;;;;;;;;;4754021;30;20027;-75
2022/09/04 04:31:19;;;;;;;10.43;5.30;;;;;;;;;;4754140;30;20044;-74
2022/09/04 04:33:51;;;;;;;9.05;5.00;;;;;;;;;;4754018;30;20024;-74
2022/09/04 04:36:27;;;;;;;9.13;4.93;;;;;;;;;;4753857;30;20030;-74
2022/09/04 04:39:11;;;;;;;10.52;5.15;;;;;;;;;;4753710;30;20024;-74
2022/09/04 04:42:03;;;;;;;7.43;4.97;;;;;;;;;;4770863;30;20035;-74
2022/09/04 04:45:48;;;;;;;;;;;;;;;;;;4753466;30;20038;-74
2022/09/04 04:47:23;;;;;;;11.13;4.57;;;;;;;;;;4753575;30;19922;-73
2022/09/04 04:50:05;;;;;;;8.60;4.78;;;;;;;;;;4753486;30;20063;-74
2022/09/04 04:52:43;;;;;;;8.32;4.72;;;;;;;;;;4753631;30;20039;-73
2022/09/04 04:55:25;;;;;;;11.07;4.15;;;;;;;;;;4753022;30;20532;-74
2022/09/04 04:58:16;;;;;;;9.80;4.70;;;;;;;;;;4753449;30;20039;-74
2022/09/04 05:00:47;;;;;;;8.88;4.63;;;;;;;;;;4753473;30;20479;-74
2022/09/04 05:03:19;;;;;;;12.43;5.30;;;;;;;;;;4766846;30;20048;-74
2022/09/04 05:05:52;;;;;;;8.00;4.18;;;;;;;;;;4753229;30;20044;-74
2022/09/04 05:08:37;;;;;;;13.07;5.35;;;;;;;;;;4753247;30;20023;-74
2022/09/04 05:11:15;;;;;;;11.35;5.50;;;;;;;;;;4753249;30;20046;-74
2022/09/04 05:13:47;;;;;;;10.40;5.30;;;;;;;;;;4753053;30;20032;-74
2022/09/04 05:16:31;;;;;;;13.95;5.13;;;;;;;;;;4753186;30;20394;-74
2022/09/04 05:19:16;;;;;;;10.27;4.90;;;;;;;;;;4753001;30;20078;-74
2022/09/04 05:21:48;;;;;;;12.18;5.35;;;;;;;;;;4753008;30;20046;-74
2022/09/04 05:24:31;;;;;;;9.25;5.07;;;;;;;;;;4753036;30;20038;-74
2022/09/04 05:27:10;;;;;;;10.25;5.40;;;;;;;;;;4766499;30;20046;-74
2022/09/04 05:29:50;;;;;;;9.20;5.03;;;;;;;;;;4752805;30;20406;-74
2022/09/04 05:32:25;;;;;;;12.00;5.35;;;;;;;;;;4753091;30;20032;-74
2022/09/04 05:34:59;;;;;;;12.80;5.43;;;;;;;;;;4752845;30;20058;-74
2022/09/04 05:37:46;;;;;;;8.50;5.00;;;;;;;;;;4752606;30;20032;-74
2022/09/04 05:40:19;;;;;;;11.63;4.68;;;;;;;;;;4752783;30;20024;-74
2022/09/04 05:42:51;;;;;;;10.55;5.13;;;;;;;;;;4752500;30;20051;-74
2022/09/04 05:45:17;;;;;;;9.13;5.22;;;;;;;;;;4752568;30;20040;-74
2022/09/04 05:48:02;;;;;;;7.38;5.05;;;;;;;;;;4752562;30;20031;-74
2022/09/04 05:50:32;;;;;;;11.32;5.13;;;;;;;;;;4752534;30;20032;-74
2022/09/04 05:52:58;;;;;;;9.88;4.80;;;;;;;;;;4752490;30;20035;-74
2022/09/04 05:55:31;;;;;;;11.07;4.95;;;;;;;;;;4752136;30;20040;-74
2022/09/04 05:58:16;;;;;;;8.13;4.85;;;;;;;;;;4752389;30;20028;-74
2022/09/04 06:00:54;;;;;;;8.85;4.65;;;;;;;;;;4752610;30;20043;-74
2022/09/04 06:03:39;;;;;;;10.77;4.97;;;;;;;;;;4752404;30;20394;-73
2022/09/04 06:06:08;;;;;;;9.85;4.53;;;;;;;;;;4752282;30;20080;-74
2022/09/04 06:08:51;;;;;;;10.45;4.72;;;;;;;;;;4752152;30;20044;-74
2022/09/04 06:11:36;;;;;;;10.05;4.90;;;;;;;;;;4765946;30;20042;-74
2022/09/04 06:14:02;;;;;;;8.52;4.68;;;;;;;;;;4751710;30;20058;-74
2022/09/04 06:17:01;;;;;;;8.80;4.63;;;;;;;;;;4752447;30;20032;-74
2022/09/04 06:19:29;;;;;;;10.07;4.82;;;;;;;;;;4750028;30;20056;-74
2022/09/04 06:22:28;;;;;;;17.67;4.63;;;;;;;;;;4749530;30;20044;-74
2022/09/04 06:25:13;;;;;;;15.25;4.85;;;;;;;;;;4680406;30;20528;-74
2022/09/04 06:27:47;;;;;;;10.32;4.57;;;;;;;;;;4680439;30;20049;-74
2022/09/04 06:30:14;;;;;;;8.15;4.25;;;;;;;;;;4680116;30;20031;-74
2022/09/04 06:32:49;;;;;;;6.50;4.30;;;;;;;;;;4680209;30;20068;-74
2022/09/04 06:35:35;;;;;;;11.20;4.55;;;;;;;;;;4679971;30;20044;-74
2022/09/04 06:38:01;;;;;;;10.63;4.45;;;;;;;;;;4680032;30;20037;-75
2022/09/04 06:40:42;;;;;;;11.90;4.47;;;;;;;;;;4679980;30;20050;-74
2022/09/04 06:43:15;;;;;;;7.78;4.28;;;;;;;;;;4679849;30;20056;-75
2022/09/04 06:45:50;;;;;;;7.18;4.15;;;;;;;;;;4680056;30;20058;-74
2022/09/04 06:48:22;;;;;;;10.50;4.90;;;;;;;;;;4680024;30;20513;-73
2022/09/04 06:50:51;;;;;;;10.95;4.35;;;;;;;;;;4679883;30;20034;-73
2022/09/04 06:53:17;;;;;;;13.10;4.80;;;;;;;;;;4680019;30;20050;-74
2022/09/04 06:55:46;;;;;;;12.07;4.78;;;;;;;;;;4693856;30;20054;-74
2022/09/04 06:58:23;;;;;;;11.32;4.55;;;;;;;;;;4697135;30;20029;-74
2022/09/04 07:00:55;;;;;;;10.18;4.45;;;;;;;;;;4731604;30;20032;-74
2022/09/04 07:03:24;;;;;;;10.68;4.30;;;;;;;;;;4751631;30;20039;-74
2022/09/04 07:05:53;;;;;;;10.25;4.47;;;;;;;;;;4751146;30;20051;-74
2022/09/04 07:08:23;;;;;;;8.93;4.32;;;;;;;;;;4751241;30;20476;-74
2022/09/04 07:10:49;;;;;;;8.70;3.97;;;;;;;;;;4751364;30;20035;-74
2022/09/04 07:13:34;;;;;;;9.32;4.25;;;;;;;;;;4751367;30;20021;-74
2022/09/04 07:16:19;;;;;;;10.05;4.40;;;;;;;;;;4751895;30;20036;-74
2022/09/04 07:18:45;;;;;;;7.40;4.25;;;;;;;;;;4764856;30;20048;-74
2022/09/04 07:21:11;;;;;;;9.25;4.20;;;;;;;;;;4751244;30;20044;-74
2022/09/04 07:23:47;;;;;;;8.75;4.18;;;;;;;;;;4751495;30;20054;-74
2022/09/04 07:26:19;;;;;;;10.45;3.70;;;;;;;;;;4751227;30;20040;-74
2022/09/04 07:29:04;;;;;;;9.20;3.28;;;;;;;;;;4751446;30;20031;-74
2022/09/04 07:31:40;;;;;;;4.80;3.10;;;;;;;;;;4751233;30;20044;-74
2022/09/04 07:34:07;;;;;;;7.85;3.00;;;;;;;;;;4751253;30;20028;-74
2022/09/04 07:36:53;;;;;;;7.38;2.90;;;;;;;;;;4751305;30;20031;-74
2022/09/04 07:39:30;;;;;;;9.70;3.22;;;;;;;;;;4751411;30;20062;-74
2022/09/04 07:42:11;;;;;;;12.13;3.88;;;;;;;;;;4751115;30;20432;-74
2022/09/04 07:44:47;;;;;;;10.25;4.10;;;;;;;;;;4751426;30;20085;-74
2022/09/04 07:47:25;;;;;;;9.30;3.40;;;;;;;;;;4751249;30;20028;-74
2022/09/04 07:49:51;;;;;;;19.00;3.97;;;;;;;;;;4750748;30;20036;-74
2022/09/04 07:52:55;;;;;;;13.68;3.83;;;;;;;;;;4750189;30;20043;-74
2022/09/04 07:55:27;;;;;;;14.50;4.15;;;;;;;;;;4750977;30;20089;-74
2022/09/04 07:58:02;;;;;;;10.13;3.83;;;;;;;;;;4751214;30;20051;-74
2022/09/04 08:00:33;;;;;;;7.10;3.13;;;;;;;;;;4751012;30;20043;-75
2022/09/04 08:03:06;;;;;;;8.90;3.88;;;;;;;;;;4750670;30;20020;-74
2022/09/04 08:05:33;;;;;;;12.32;3.00;;;;;;;;;;4764797;30;20052;-74
2022/09/04 08:08:02;;;;;;;7.15;3.28;;;;;;;;;;4751184;30;20025;-74
2022/09/04 08:10:31;;;;;;;6.35;2.80;;;;;;;;;;4750848;30;20040;-74
2022/09/04 08:13:17;;;;;;;5.65;2.90;;;;;;;;;;4751037;30;20040;-75
2022/09/04 08:15:48;;;;;;;9.73;2.85;;;;;;;;;;4751198;30;20032;-74
2022/09/04 08:18:20;;;;;;;7.43;3.10;;;;;;;;;;4750459;30;20054;-74
2022/09/04 08:21:06;;;;;;;9.38;2.78;;;;;;;;;;4752684;30;20044;-75
2022/09/04 08:23:38;;;;;;;8.52;2.72;;;;;;;;;;4754109;30;20043;-75
2022/09/04 08:26:10;;;;;;;5.03;2.70;;;;;;;;;;4753881;30;20044;-74
2022/09/04 08:28:47;;;;;;;7.82;2.45;;;;;;;;;;4754245;30;20032;-74
2022/09/04 08:31:29;;;;;;;7.85;2.72;;;;;;;;;;4753843;30;20025;-75
2022/09/04 08:34:26;;;;;;;8.00;2.47;;;;;;;;;;4753727;30;20077;-74
2022/09/04 08:37:11;;;;;;;12.95;2.55;;;;;;;;;;4754103;30;20026;-75
2022/09/04 08:39:38;;;;;;;9.23;2.80;;;;;;;;;;4753611;30;20413;-74
2022/09/04 08:42:30;;;;;;;8.52;3.17;;;;;;;;;;4753660;30;20038;-74
2022/09/04 08:45:15;;;;;;;8.88;3.40;;;;;;;;;;4782051;30;20050;-75
2022/09/04 08:48:00;;;;;;;8.73;3.10;;;;;;;;;;4753259;30;20434;-74
2022/09/04 08:50:38;;;;;;;8.35;2.60;;;;;;;;;;4753737;30;20487;-74
2022/09/04 08:53:13;;;;;;;10.75;2.50;;;;;;;;;;4753405;30;20027;-75
2022/09/04 08:55:49;;;;;;;7.95;2.42;;;;;;;;;;4753440;30;20036;-75
2022/09/04 08:58:24;;;;;;;9.95;3.15;;;;;;;;;;4753442;30;20410;-75
2022/09/04 09:00:57;;;;;;;7.28;2.80;;;;;;;;;;4753242;30;20028;-74
2022/09/04 09:03:42;;;;;;;7.40;2.30;;;;;;;;;;4753382;30;20025;-74
2022/09/04 09:06:20;;;;;;;10.35;2.35;;;;;;;;;;4753338;30;20042;-75
2022/09/04 09:08:58;;;;;;;9.27;2.60;;;;;;;;;;4753609;30;20038;-75
2022/09/04 09:11:34;;;;;;;9.48;2.38;;;;;;;;;;4753489;30;20145;-75
2022/09/04 09:14:15;;;;;;;12.07;2.75;;;;;;;;;;4753219;30;20039;-74
2022/09/04 09:16:54;;;;;;;11.55;2.70;;;;;;;;;;4753205;30;20020;-74
2022/09/04 09:19:24;;;;;;;10.80;2.95;;;;;;;;;;4767044;30;20048;-74
2022/09/04 09:22:11;;;;;;;5.90;2.20;;;;;;;;;;4753237;30;20048;-74
2022/09/04 09:24:50;;;;;;;9.50;2.58;;;;;;;;;;4753003;30;20421;-74
2022/09/04 09:27:16;;;;;;;7.85;2.63;;;;;;;;;;4752955;30;20042;-74
2022/09/04 09:30:03;;;;;;;11.98;2.50;;;;;;;;;;4752466;30;20032;-74
2022/09/04 09:32:29;;;;;;;8.55;2.33;;;;;;;;;;4752217;30;20054;-74
2022/09/04 09:34:56;;;;;;;9.95;2.80;;;;;;;;;;4752778;30;20036;-74
2022/09/04 09:37:41;;;;;;;7.38;2.60;;;;;;;;;;4753080;30;20456;-75
2022/09/04 09:40:19;;;;;;;6.13;2.30;;;;;;;;;;4753019;30;20136;-74
2022/09/04 09:43:25;;;;;;;12.63;2.58;;;;;;;;;;4752388;30;20024;-73
2022/09/04 09:45:54;;;;;;;11.18;2.63;;;;;;;;;;4750192;30;20050;-74
2022/09/04 09:48:23;;;;;;;15.55;2.80;;;;;;;;;;4750376;30;20038;-74
2022/09/04 09:51:01;;;;;;;7.05;2.42;;;;;;;;;;4750815;30;20051;-75
2022/09/04 09:53:43;;;;;;;11.73;3.00;;;;;;;;;;4749920;30;20559;-72
2022/09/04 09:56:09;;;;;;;10.85;2.38;;;;;;;;;;4732966;30;20037;-74
2022/09/04 09:58:43;;;;;;;9.35;2.30;;;;;;;;;;4732360;30;20039;-74
2022/09/04 10:01:15;;;;;;;8.50;2.78;;;;;;;;;;4732570;30;20047;-74
2022/09/04 10:04:00;;;;;;;7.05;2.53;;;;;;;;;;4732679;30;20047;-75
2022/09/04 10:06:49;;;;;;;9.18;2.60;;;;;;;;;;4732396;30;20071;-74
2022/09/04 10:09:24;;;;;;;9.80;2.53;;;;;;;;;;4732259;30;20052;-75
2022/09/04 10:12:09;;;;;;;7.78;2.45;;;;;;;;;;4732440;30;20428;-74
2022/09/04 10:14:51;;;;;;;9.05;2.97;;;;;;;;;;4732036;30;20047;-74
2022/09/04 10:17:21;;;;;;;10.93;2.90;;;;;;;;;;4747792;30;20054;-74
2022/09/04 10:19:47;;;;;;;;;;;;;;;;;;4752460;30;20040;-74
2022/09/04 10:22:16;;;;;;;4.93;2.42;;;;;;;;;;4750893;30;19914;-74
2022/09/04 10:24:58;;;;;;;7.28;2.85;;;;;;;;;;4765822;30;20044;-74
2022/09/04 10:27:40;;;;;;;12.35;2.67;;;;;;;;;;4751702;30;20487;-75
2022/09/04 10:30:09;;;;;;;5.55;2.50;;;;;;;;;;4752105;30;20034;-74
2022/09/04 10:32:36;;;;;;;6.17;2.80;;;;;;;;;;4752016;30;20036;-74
2022/09/04 10:35:40;;;;;;;7.65;2.83;;;;;;;;;;4751674;30;20035;-74
2022/09/04 10:38:31;;;;;;;7.78;2.65;;;;;;;;;;4749776;30;20047;-74
2022/09/04 10:40:58;;;;;;;9.30;3.03;;;;;;;;;;4747290;30;20036;-75
2022/09/04 10:43:39;;;;;;;7.10;2.60;;;;;;;;;;4731344;30;20350;-74
2022/09/04 10:46:07;;;;;;;8.02;3.08;;;;;;;;;;4732243;30;20048;-75
2022/09/04 10:48:36;;;;;;;9.35;2.58;;;;;;;;;;4732060;30;20070;-74
2022/09/04 10:51:21;;;;;;;7.60;2.93;;;;;;;;;;4732057;30;20044;-74
2022/09/04 10:54:05;;;;;;;8.20;2.47;;;;;;;;;;4734385;30;20024;-74
2022/09/04 10:56:49;;;;;;;9.82;2.60;;;;;;;;;;4749297;30;20040;-74
2022/09/04 10:59:36;;;;;;;7.60;2.45;;;;;;;;;;4749470;30;20042;-75
2022/09/04 11:02:31;;;;;;;8.65;2.33;;;;;;;;;;4749266;30;20042;-74
2022/09/04 11:05:18;;;;;;;7.88;2.22;;;;;;;;;;4714197;30;20057;-75
2022/09/04 11:07:58;;;;;;;7.38;2.42;;;;;;;;;;4714732;30;20044;-74
2022/09/04 11:10:30;;;;;;;8.98;2.58;;;;;;;;;;4731841;30;20581;-75
2022/09/04 11:13:11;;;;;;;9.02;2.38;;;;;;;;;;4731397;30;20036;-75
2022/09/04 11:15:37;;;;;;;7.10;2.42;;;;;;;;;;4731969;30;20094;-75
2022/09/04 11:18:18;;;;;;;6.55;2.33;;;;;;;;;;4731562;30;20055;-74
2022/09/04 11:21:13;;;;;;;9.70;2.38;;;;;;;;;;4731695;30;20041;-75
2022/09/04 11:23:58;;;;;;;8.15;2.30;;;;;;;;;;4696833;30;20045;-75
2022/09/04 11:26:46;;;;;;;7.97;2.13;;;;;;;;;;4696569;30;20601;-75
2022/09/04 11:29:12;;;;;;;10.30;2.55;;;;;;;;;;4696581;30;20420;-74
2022/09/04 11:31:47;;;;;;;10.07;2.63;;;;;;;;;;4697115;30;20026;-75
2022/09/04 11:34:32;;;;;;;8.65;2.72;;;;;;;;;;4696793;30;20478;-75
2022/09/04 11:36:59;;;;;;;7.38;2.20;;;;;;;;;;4697008;30;20037;-75
2022/09/04 11:39:48;;;;;;;7.30;2.22;;;;;;;;;;4697107;30;20041;-75
2022/09/04 11:42:30;;;;;;;9.63;2.60;;;;;;;;;;4709088;30;20041;-75
2022/09/04 11:45:06;;;;;;;9.85;2.80;;;;;;;;;;4714040;30;20198;-75
2022/09/04 11:47:38;;;;;;;9.25;2.50;;;;;;;;;;4714122;30;20037;-75
2022/09/04 11:50:05;;;;;;;7.53;2.20;;;;;;;;;;4714209;30;20039;-74
2022/09/04 11:52:32;;;;;;;10.10;2.38;;;;;;;;;;4713883;30;20477;-75
2022/09/04 11:55:16;;;;;;;10.35;2.40;;;;;;;;;;4715618;30;20025;-74
2022/09/04 11:57:53;;;;;;;10.68;2.28;;;;;;;;;;4717210;30;20039;-74
2022/09/04 12:00:19;;;;;;;12.88;2.30;;;;;;;;;;4740281;30;20046;-74
2022/09/04 12:02:49;;;;;;;5.43;2.30;;;;;;;;;;4754507;30;20039;-74
2022/09/04 12:05:15;;;;;;;10.10;2.33;;;;;;;;;;4754503;30;20032;-74
2022/09/04 12:07:42;;;;;;;7.07;2.65;;;;;;;;;;4754286;30;20035;-75
2022/09/04 12:10:08;;;;;;;6.53;2.35;;;;;;;;;;4754071;30;20457;-75
2022/09/04 12:12:34;;;;;;;5.10;2.38;;;;;;;;;;4754375;30;20028;-75
2022/09/04 12:15:00;;;;;;;8.88;2.28;;;;;;;;;;4754151;30;20032;-74
2022/09/04 12:17:33;;;;;;;9.07;2.22;;;;;;;;;;4754041;30;20191;-74
2022/09/04 12:19:59;;;;;;;6.90;2.03;;;;;;;;;;4754099;30;20513;-74
2022/09/04 12:22:29;;;;;;;7.82;2.30;;;;;;;;;;4753975;30;20035;-75
2022/09/04 12:24:56;;;;;;;8.18;2.45;;;;;;;;;;4753955;30;20048;-74
2022/09/04 12:27:25;;;;;;;6.00;2.15;;;;;;;;;;4754339;30;20032;-74
2022/09/04 12:30:10;;;;;;;8.00;2.22;;;;;;;;;;4753903;30;20028;-75
2022/09/04 12:32:55;;;;;;;5.55;2.20;;;;;;;;;;4753794;30;20555;-74
2022/09/04 12:35:28;;;;;;;6.47;2.03;;;;;;;;;;4754372;30;20043;-75
2022/09/04 12:38:07;;;;;;;5.63;2.25;;;;;;;;;;4753639;30;20032;-75
2022/09/04 12:40:40;;;;;;;3.75;1.98;;;;;;;;;;4753807;30;20338;-75
2022/09/04 12:43:15;;;;;;;9.15;2.58;;;;;;;;;;4736006;30;20051;-75
2022/09/04 12:45:47;;;;;;;6.53;2.00;;;;;;;;;;4736108;30;20033;-75
2022/09/04 12:48:17;;;;;;;7.97;2.25;;;;;;;;;;4736082;30;20428;-75
2022/09/04 12:50:49;;;;;;;9.65;2.40;;;;;;;;;;4736214;30;20039;-75
2022/09/04 12:53:31;;;;;;;8.70;1.98;;;;;;;;;;4735486;30;20047;-74
2022/09/04 12:56:05;;;;;;;4.78;2.42;;;;;;;;;;4753581;30;20042;-75
2022/09/04 12:58:32;;;;;;;7.70;1.90;;;;;;;;;;4753458;30;20036;-75
2022/09/04 13:01:12;;;;;;;7.43;2.35;;;;;;;;;;4753599;30;20032;-76
2022/09/04 13:03:38;;;;;;;6.47;2.25;;;;;;;;;;4753474;30;20058;-75
2022/09/04 13:06:08;;;;;;;8.27;2.40;;;;;;;;;;4753006;30;20051;-75
2022/09/04 13:08:43;;;;;;;5.10;2.22;;;;;;;;;;4753323;30;20034;-74
2022/09/04 13:11:09;;;;;;;7.80;2.20;;;;;;;;;;4753149;30;20070;-75
2022/09/04 13:13:55;;;;;;;13.68;2.22;;;;;;;;;;4753282;30;20036;-75
2022/09/04 13:16:21;;;;;;;5.97;2.25;;;;;;;;;;4753178;30;20032;-75
2022/09/04 13:18:50;;;;;;;6.32;2.17;;;;;;;;;;4753248;30;20096;-75
2022/09/04 13:21:35;;;;;;;5.72;2.22;;;;;;;;;;4753203;30;20036;-75
2022/09/04 13:24:34;;;;;;;5.45;2.15;;;;;;;;;;4753171;30;20040;-75
2022/09/04 13:27:26;;;;;;;5.95;2.03;;;;;;;;;;4750968;30;20051;-75
2022/09/04 13:29:57;;;;;;;7.43;2.20;;;;;;;;;;4733257;30;20086;-75
2022/09/04 13:32:26;;;;;;;6.53;2.30;;;;;;;;;;4733346;30;20090;-75
2022/09/04 13:34:53;;;;;;;8.20;2.20;;;;;;;;;;4733302;30;20045;-75
2022/09/04 13:37:33;;;;;;;4.40;2.17;;;;;;;;;;4733149;30;20098;-75
2022/09/04 13:40:21;;;;;;;5.32;1.90;;;;;;;;;;4733406;30;20039;-75
2022/09/04 13:43:03;;;;;;;7.63;2.40;;;;;;;;;;4717771;30;20037;-75
2022/09/04 13:45:32;;;;;;;5.97;2.15;;;;;;;;;;4715802;30;20047;-75
2022/09/04 13:47:59;;;;;;;;;;;;;;;;;;4715972;30;20049;-75
2022/09/04 13:50:31;;;;;;;8.10;2.30;;;;;;;;;;4715299;30;20037;-74
2022/09/04 13:53:11;;;;;;;5.40;2.08;;;;;;;;;;4715290;30;20041;-75
2022/09/04 13:55:58;;;;;;;8.10;2.25;;;;;;;;;;4731116;30;20047;-75
2022/09/04 13:58:34;;;;;;;8.10;2.13;;;;;;;;;;4732798;30;20036;-74
2022/09/04 14:01:05;;;;;;;5.68;1.92;;;;;;;;;;4732571;30;20037;-75
2022/09/04 14:03:37;;;;;;;12.50;2.28;;;;;;;;;;4742817;30;20051;-74
2022/09/04 14:06:07;;;;;;;6.93;2.38;;;;;;;;;;4735890;30;20066;-74
2022/09/04 14:08:35;;;;;;;7.05;2.03;;;;;;;;;;4752134;30;20043;-74
2022/09/04 14:11:01;;;;;;;4.88;2.17;;;;;;;;;;4751574;30;20040;-75
2022/09/04 14:13:29;;;;;;;6.85;2.22;;;;;;;;;;4752344;30;20032;-74
2022/09/04 14:16:03;;;;;;;4.20;1.75;;;;;;;;;;4752403;30;20032;-74
2022/09/04 14:18:41;;;;;;;4.85;1.85;;;;;;;;;;4751462;30;20099;-75
2022/09/04 14:21:14;;;;;;;7.15;2.10;;;;;;;;;;4751881;30;20036;-74
2022/09/04 14:23:40;;;;;;;5.28;2.20;;;;;;;;;;4751993;30;20078;-75
2022/09/04 14:26:11;;;;;;;10.73;2.05;;;;;;;;;;4751971;30;20392;-75
2022/09/04 14:28:50;;;;;;;6.90;2.10;;;;;;;;;;4751984;30;20042;-75
2022/09/04 14:31:26;;;;;;;9.93;2.40;;;;;;;;;;4752111;30;20117;-74
2022/09/04 14:33:55;;;;;;;5.30;2.28;;;;;;;;;;4751523;30;20039;-73
2022/09/04 14:36:27;;;;;;;8.10;1.97;;;;;;;;;;4751865;30;20042;-75
2022/09/04 14:39:14;;;;;;;7.93;2.28;;;;;;;;;;4751881;30;20035;-74
2022/09/04 14:41:59;;;;;;;8.55;2.22;;;;;;;;;;4751384;30;20032;-75
2022/09/04 14:44:34;;;;;;;7.97;2.40;;;;;;;;;;4751910;30;20046;-74
2022/09/04 14:47:15;;;;;;;7.53;2.35;;;;;;;;;;4751684;30;20044;-75
2022/09/04 14:49:47;;;;;;;10.35;2.38;;;;;;;;;;4751481;30;20032;-74
2022/09/04 14:52:20;;;;;;;4.72;1.90;;;;;;;;;;4751678;30;20482;-74
2022/09/04 14:54:51;;;;;;;4.07;2.03;;;;;;;;;;4751575;30;20039;-74
2022/09/04 14:57:26;;;;;;;6.60;2.22;;;;;;;;;;4751869;30;20040;-74
2022/09/04 15:00:02;;;;;;;6.05;2.40;;;;;;;;;;4751563;30;20024;-74
2022/09/04 15:02:33;;;;;;;8.52;2.55;;;;;;;;;;4751634;30;20028;-75
2022/09/04 15:05:02;;;;;;;11.95;2.50;;;;;;;;;;4751015;30;20522;-74
2022/09/04 15:07:48;;;;;;;7.97;2.90;;;;;;;;;;4751648;30;20032;-74
2022/09/04 15:10:23;;;;;;;6.15;2.45;;;;;;;;;;4751536;30;20036;-74
2022/09/04 15:13:04;;;;;;;7.78;2.35;;;;;;;;;;4751687;30;20034;-74
2022/09/04 15:15:37;;;;;;;6.32;2.30;;;;;;;;;;4751540;30;20036;-73
2022/09/04 15:18:15;;;;;;;10.18;2.67;;;;;;;;;;4751037;30;20052;-73
2022/09/04 15:20:49;;;;;;;7.05;2.30;;;;;;;;;;4751599;30;20051;-74
2022/09/04 15:23:34;;;;;;;11.60;2.30;;;;;;;;;;4764983;30;20054;-75
2022/09/04 15:26:06;;;;;;;4.47;2.17;;;;;;;;;;4751464;30;20040;-74
2022/09/04 15:28:41;;;;;;;8.68;2.50;;;;;;;;;;4752473;30;20047;-74
2022/09/04 15:31:17;;;;;;;7.82;2.75;;;;;;;;;;4754845;30;20036;-74